createdAt,value
2023-01-09T00:01:25.790Z,24.95
2023-01-09T00:03:54.097Z,24.98
2023-01-09T00:06:22.161Z,25.08
2023-01-09T00:08:50.490Z,24.35
2023-01-09T00:11:18.731Z,24.45
2023-01-09T00:13:47.259Z,24.25
2023-01-09T00:16:15.587Z,24.35
2023-01-09T00:18:45.310Z,24.73
2023-01-09T00:21:13.818Z,23.10
2023-01-09T00:23:42.068Z,24.02
2023-01-09T00:26:11.778Z,24.08
2023-01-09T00:28:40.031Z,23.85
2023-01-09T00:31:08.724Z,24.25
2023-01-09T00:33:38.239Z,23.90
2023-01-09T00:36:08.799Z,23.23
2023-01-09T00:38:37.539Z,23.15
2023-01-09T00:41:05.939Z,23.30
2023-01-09T00:43:36.039Z,23.58
2023-01-09T00:46:05.524Z,22.85
2023-01-09T00:48:33.754Z,22.55
2023-01-09T00:51:01.947Z,22.25
2023-01-09T00:53:32.749Z,21.70
2023-01-09T00:56:02.387Z,22.27
2023-01-09T00:58:30.491Z,21.63
2023-01-09T01:00:58.858Z,21.73
2023-01-09T01:03:27.204Z,21.38
2023-01-09T01:06:12.650Z,22.02
2023-01-09T01:08:42.194Z,21.55
2023-01-09T01:11:11.222Z,21.38
2023-01-09T01:13:39.946Z,21.10
2023-01-09T01:16:08.610Z,21.17
2023-01-09T01:18:36.759Z,20.25
2023-01-09T01:21:07.625Z,20.30
2023-01-09T01:23:35.916Z,20.52
2023-01-09T01:26:08.867Z,21.17
2023-01-09T01:28:37.095Z,20.05
2023-01-09T01:31:05.316Z,21.00
2023-01-09T01:33:35.187Z,19.98
2023-01-09T01:36:04.336Z,20.80
2023-01-09T01:38:32.433Z,20.92
2023-01-09T01:41:00.743Z,19.88
2023-01-09T01:43:30.412Z,20.20
2023-01-09T01:45:58.666Z,18.90
2023-01-09T01:48:28.399Z,19.50
2023-01-09T01:50:58.606Z,19.65
2023-01-09T01:53:28.255Z,20.17
2023-01-09T01:56:01.611Z,19.40
2023-01-09T01:58:31.182Z,19.70
2023-01-09T02:00:59.422Z,19.45
2023-01-09T02:03:28.485Z,18.98
2023-01-09T02:05:56.725Z,19.65
2023-01-09T02:08:24.839Z,18.98
2023-01-09T02:10:53.022Z,18.83
2023-01-09T02:13:21.095Z,18.15
2023-01-09T02:15:58.468Z,17.80
2023-01-09T02:18:54.215Z,18.40
2023-01-09T02:21:26.001Z,18.20
2023-01-09T02:24:26.650Z,17.60
2023-01-09T02:27:08.971Z,17.65
2023-01-09T02:30:10.675Z,17.63
2023-01-09T02:32:44.960Z,17.13
2023-01-09T02:35:20.781Z,17.98
2023-01-09T02:37:53.095Z,17.00
2023-01-09T02:40:23.583Z,18.27
2023-01-09T02:42:51.868Z,17.02
2023-01-09T02:45:21.485Z,16.90
2023-01-09T02:47:49.639Z,17.00
2023-01-09T02:50:18.817Z,16.60
2023-01-09T02:53:10.850Z,15.98
2023-01-09T02:55:52.305Z,16.73
2023-01-09T02:58:25.059Z,16.25
2023-01-09T03:00:58.414Z,16.30
2023-01-09T03:03:28.695Z,16.75
2023-01-09T03:06:00.651Z,15.60
2023-01-09T03:08:32.579Z,15.52
2023-01-09T03:11:01.779Z,16.55
2023-01-09T03:13:32.681Z,15.23
2023-01-09T03:16:03.545Z,15.07
2023-01-09T03:18:31.720Z,15.80
2023-01-09T03:20:59.807Z,15.27
2023-01-09T03:23:28.024Z,15.43
2023-01-09T03:25:56.105Z,15.38
2023-01-09T03:28:27.456Z,15.52
2023-01-09T03:30:55.704Z,15.30
2023-01-09T03:33:25.145Z,15.70
2023-01-09T03:35:53.290Z,14.88
2023-01-09T03:38:21.340Z,15.05
2023-01-09T03:40:49.645Z,15.27
2023-01-09T03:43:17.851Z,15.20
2023-01-09T03:45:46.010Z,14.95
2023-01-09T03:48:14.153Z,14.32
2023-01-09T03:50:45.967Z,14.02
2023-01-09T03:53:14.405Z,14.52
2023-01-09T03:55:45.135Z,14.18
2023-01-09T03:58:13.259Z,13.85
2023-01-09T04:00:41.456Z,14.80
2023-01-09T04:03:09.868Z,13.82
2023-01-09T04:05:38.011Z,13.82
2023-01-09T04:08:07.711Z,14.30
2023-01-09T04:10:35.749Z,14.10
2023-01-09T04:13:04.059Z,13.52
2023-01-09T04:15:32.170Z,14.23
2023-01-09T04:18:00.404Z,13.15
2023-01-09T04:20:28.757Z,14.27
2023-01-09T04:22:57.444Z,13.18
2023-01-09T04:25:27.096Z,14.18
2023-01-09T04:27:55.239Z,13.95
2023-01-09T04:30:23.419Z,13.15
2023-01-09T04:32:52.078Z,13.50
2023-01-09T04:35:20.674Z,13.13
2023-01-09T04:37:48.897Z,13.30
2023-01-09T04:40:19.890Z,12.52
2023-01-09T04:42:49.519Z,13.40
2023-01-09T04:45:17.629Z,12.55
2023-01-09T04:47:46.012Z,13.07
2023-01-09T04:50:14.188Z,12.95
2023-01-09T04:52:42.445Z,12.50
2023-01-09T04:55:11.048Z,12.82
2023-01-09T04:57:39.274Z,12.23
2023-01-09T05:00:12.389Z,12.05
2023-01-09T05:02:40.813Z,11.65
2023-01-09T05:05:11.497Z,12.38
2023-01-09T05:07:40.172Z,12.07
2023-01-09T05:10:09.239Z,11.68
2023-01-09T05:12:37.676Z,12.20
2023-01-09T05:15:07.055Z,12.07
2023-01-09T05:17:36.674Z,11.80
2023-01-09T05:20:05.215Z,11.90
2023-01-09T05:22:33.467Z,11.57
2023-01-09T05:25:01.595Z,11.52
2023-01-09T05:27:30.511Z,11.68
2023-01-09T05:29:58.636Z,11.52
2023-01-09T05:32:26.896Z,11.20
2023-01-09T05:34:56.383Z,11.80
2023-01-09T05:37:24.547Z,11.32
2023-01-09T05:39:52.657Z,10.73
2023-01-09T05:42:20.791Z,11.00
2023-01-09T05:44:48.973Z,11.07
2023-01-09T05:47:17.375Z,10.48
2023-01-09T05:49:45.427Z,10.63
2023-01-09T05:52:14.971Z,10.75
2023-01-09T05:54:43.031Z,10.68
2023-01-09T05:57:11.171Z,11.07
2023-01-09T05:59:39.320Z,10.05
2023-01-09T06:02:07.522Z,10.95
2023-01-09T06:04:35.649Z,10.85
2023-01-09T06:07:03.830Z,10.40
2023-01-09T06:09:33.387Z,10.60
2023-01-09T06:12:01.537Z,9.98
2023-01-09T06:14:29.857Z,10.20
2023-01-09T06:16:58.034Z,10.10
2023-01-09T06:19:26.108Z,10.10
2023-01-09T06:21:54.291Z,10.05
2023-01-09T06:24:22.490Z,10.57
2023-01-09T06:26:51.935Z,9.50
2023-01-09T06:29:20.279Z,10.00
2023-01-09T06:31:48.355Z,9.77
2023-01-09T06:34:16.614Z,10.40
2023-01-09T06:36:44.726Z,10.70
2023-01-09T06:39:14.187Z,9.40
2023-01-09T06:41:42.365Z,9.95
2023-01-09T06:44:11.922Z,9.60
2023-01-09T06:46:40.176Z,9.95
2023-01-09T06:49:10.046Z,9.90
2023-01-09T06:51:38.463Z,9.45
2023-01-09T06:54:06.603Z,9.77
2023-01-09T06:56:34.857Z,10.02
2023-01-09T06:59:02.895Z,10.18
2023-01-09T07:01:32.500Z,10.00
2023-01-09T07:04:00.756Z,9.90
2023-01-09T07:06:29.510Z,9.30
2023-01-09T07:08:57.745Z,10.65
2023-01-09T07:11:25.842Z,12.88
2023-01-09T07:13:54.102Z,14.68
2023-01-09T07:16:22.437Z,12.55
2023-01-09T07:18:52.582Z,16.13
2023-01-09T07:21:20.840Z,20.73
2023-01-09T07:23:48.952Z,19.20
2023-01-09T07:26:17.163Z,20.45
2023-01-09T07:28:45.368Z,18.45
2023-01-09T07:31:13.720Z,20.13
2023-01-09T07:33:41.918Z,18.27
2023-01-09T07:36:12.583Z,19.20
2023-01-09T07:38:40.918Z,19.00
2023-01-09T07:41:09.235Z,19.23
2023-01-09T07:43:37.578Z,20.40
2023-01-09T07:46:06.596Z,20.88
2023-01-09T07:48:34.967Z,19.85
2023-01-09T07:51:03.087Z,19.63
2023-01-09T07:53:32.716Z,20.25
2023-01-09T07:56:00.776Z,20.67
2023-01-09T07:58:28.960Z,21.80
2023-01-09T08:00:57.102Z,20.88
2023-01-09T08:03:26.893Z,22.65
2023-01-09T08:05:55.023Z,24.20
2023-01-09T08:08:23.592Z,22.75
2023-01-09T08:10:53.155Z,21.98
2023-01-09T08:13:21.293Z,22.73
2023-01-09T08:15:49.480Z,24.55
2023-01-09T08:18:17.696Z,25.52
2023-01-09T08:20:45.972Z,25.60
2023-01-09T08:23:14.046Z,25.90
2023-01-09T08:25:42.127Z,27.55
2023-01-09T08:28:11.703Z,27.08
2023-01-09T08:30:39.838Z,42.10
2023-01-09T08:33:07.983Z,36.25
2023-01-09T08:35:37.215Z,37.63
2023-01-09T08:38:05.391Z,33.80
2023-01-09T08:40:33.565Z,34.83
2023-01-09T08:43:18.888Z,36.28
2023-01-09T08:46:05.903Z,35.15
2023-01-09T08:48:34.265Z,36.35
2023-01-09T08:51:02.759Z,36.10
2023-01-09T08:53:31.658Z,34.78
2023-01-09T08:56:00.215Z,34.58
2023-01-09T08:58:28.394Z,34.83
2023-01-09T09:00:58.998Z,34.47
2023-01-09T09:03:27.262Z,33.55
2023-01-09T09:05:55.435Z,33.17
2023-01-09T09:08:23.607Z,31.88
2023-01-09T09:10:51.897Z,32.13
2023-01-09T09:13:20.164Z,31.30
2023-01-09T09:15:48.253Z,31.33
2023-01-09T09:18:17.833Z,31.58
2023-01-09T09:20:46.044Z,32.03
2023-01-09T09:23:14.209Z,29.70
2023-01-09T09:25:42.421Z,29.65
2023-01-09T09:28:11.015Z,29.77
2023-01-09T09:30:39.622Z,29.67
2023-01-09T09:33:07.899Z,30.00
2023-01-09T09:35:38.059Z,28.73
2023-01-09T09:38:06.423Z,29.13
2023-01-09T09:41:04.849Z,28.88
2023-01-09T09:44:14.096Z,27.63
2023-01-09T09:46:43.811Z,27.48
2023-01-09T09:49:14.423Z,27.58
2023-01-09T09:52:09.825Z,27.45
2023-01-09T09:54:41.191Z,27.17
2023-01-09T09:57:11.988Z,26.77
2023-01-09T09:59:40.220Z,26.40
2023-01-09T10:02:16.178Z,26.75
2023-01-09T10:04:46.740Z,25.63
2023-01-09T10:07:18.258Z,25.83
2023-01-09T10:09:48.504Z,24.20
2023-01-09T10:12:27.154Z,25.80
2023-01-09T10:14:55.556Z,26.42
2023-01-09T10:17:30.934Z,25.85
2023-01-09T10:20:25.890Z,25.08
2023-01-09T10:22:58.441Z,24.83
2023-01-09T10:25:29.340Z,23.95
2023-01-09T10:28:03.515Z,23.13
2023-01-09T10:30:36.403Z,24.40
2023-01-09T10:33:10.883Z,23.58
2023-01-09T10:35:50.342Z,24.48
2023-01-09T10:38:22.706Z,23.85
2023-01-09T10:40:52.600Z,25.23
2023-01-09T10:43:26.635Z,27.23
2023-01-09T10:45:55.397Z,28.38
2023-01-09T10:48:25.810Z,30.15
2023-01-09T10:50:54.131Z,30.67
2023-01-09T10:53:24.688Z,30.05
2023-01-09T10:55:54.332Z,29.33
2023-01-09T10:58:23.309Z,29.80
2023-01-09T11:00:51.916Z,29.10
2023-01-09T11:03:21.104Z,28.88
2023-01-09T11:05:51.837Z,28.83
2023-01-09T11:08:25.669Z,27.50
2023-01-09T11:10:55.000Z,27.20
2023-01-09T11:13:24.350Z,27.17
2023-01-09T11:16:16.320Z,27.40
2023-01-09T11:18:49.956Z,27.23
2023-01-09T11:21:33.610Z,27.83
2023-01-09T11:24:29.591Z,26.77
2023-01-09T11:27:23.756Z,25.83
2023-01-09T11:30:16.938Z,25.50
2023-01-09T11:32:46.134Z,25.80
2023-01-09T11:35:20.931Z,25.40
2023-01-09T11:37:50.135Z,26.02
2023-01-09T11:40:21.673Z,26.55
2023-01-09T11:43:07.244Z,29.20
2023-01-09T11:45:35.976Z,32.45
2023-01-09T11:48:04.666Z,31.38
2023-01-09T11:50:33.043Z,33.08
2023-01-09T11:53:14.355Z,34.80
2023-01-09T11:55:44.519Z,30.35
2023-01-09T11:58:14.104Z,34.28
2023-01-09T12:00:48.029Z,36.65
2023-01-09T12:03:20.046Z,43.63
2023-01-09T12:05:51.754Z,42.40
2023-01-09T12:08:25.615Z,44.33
2023-01-09T12:11:13.140Z,45.72
2023-01-09T12:13:51.078Z,47.65
2023-01-09T12:16:24.558Z,51.28
2023-01-09T12:19:05.673Z,54.45
2023-01-09T12:21:37.809Z,52.65
2023-01-09T12:24:40.686Z,56.90
2023-01-09T12:27:17.554Z,53.35
2023-01-09T12:30:06.238Z,48.55
2023-01-09T12:32:41.369Z,48.42
2023-01-09T12:35:18.725Z,49.00
2023-01-09T12:38:17.827Z,50.25
2023-01-09T12:40:57.051Z,55.22
2023-01-09T12:43:30.628Z,53.05
2023-01-09T12:46:04.854Z,55.40
2023-01-09T12:48:42.409Z,58.42
2023-01-09T12:51:38.629Z,59.15
2023-01-09T12:54:09.618Z,55.50
2023-01-09T12:56:39.183Z,58.15
2023-01-09T12:59:16.625Z,56.40
2023-01-09T13:01:46.561Z,56.63
2023-01-09T13:04:18.460Z,56.15
2023-01-09T13:06:49.193Z,57.88
2023-01-09T13:09:23.182Z,54.15
2023-01-09T13:11:54.795Z,55.47
2023-01-09T13:14:28.742Z,54.22
2023-01-09T13:16:56.981Z,54.00
2023-01-09T13:19:26.532Z,55.00
2023-01-09T13:21:54.792Z,54.67
2023-01-09T13:24:25.951Z,52.92
2023-01-09T13:26:55.461Z,54.60
2023-01-09T13:29:26.541Z,55.92
2023-01-09T13:32:05.795Z,57.22
2023-01-09T13:34:34.914Z,56.85
2023-01-09T13:37:03.101Z,66.97
2023-01-09T13:39:32.345Z,68.22
2023-01-09T13:42:19.044Z,66.05
2023-01-09T13:44:49.341Z,67.57
2023-01-09T13:47:19.853Z,69.15
2023-01-09T13:50:29.833Z,76.75
2023-01-09T13:52:58.229Z,73.68
2023-01-09T13:55:36.190Z,74.47
2023-01-09T13:58:22.868Z,73.78
2023-01-09T14:01:00.366Z,75.20
2023-01-09T14:03:33.553Z,74.25
2023-01-09T14:06:21.540Z,73.78
2023-01-09T14:08:50.889Z,72.93
2023-01-09T14:11:22.830Z,72.32
2023-01-09T14:14:07.656Z,70.47
2023-01-09T14:16:40.145Z,69.78
2023-01-09T14:19:27.088Z,67.82
2023-01-09T14:21:56.322Z,70.68
2023-01-09T14:24:26.695Z,69.78
2023-01-09T14:26:57.279Z,70.55
2023-01-09T14:29:46.095Z,69.05
2023-01-09T14:32:48.581Z,68.40
2023-01-09T14:35:28.735Z,69.18
2023-01-09T14:38:03.226Z,69.30
2023-01-09T14:40:31.349Z,70.85
2023-01-09T14:43:02.397Z,71.57
2023-01-09T14:45:31.732Z,70.80
2023-01-09T14:48:02.871Z,72.93
2023-01-09T14:50:34.110Z,72.45
2023-01-09T14:53:05.675Z,70.57
2023-01-09T14:55:37.389Z,71.82
2023-01-09T14:58:12.689Z,72.15
2023-01-09T15:00:48.757Z,70.57
2023-01-09T15:03:18.528Z,71.95
2023-01-09T15:05:46.820Z,63.53
2023-01-09T15:08:16.906Z,65.43
2023-01-09T15:10:45.259Z,59.42
2023-01-09T15:13:15.373Z,64.05
2023-01-09T15:15:46.104Z,64.75
2023-01-09T15:18:22.352Z,67.43
2023-01-09T15:20:55.137Z,64.78
2023-01-09T15:23:23.956Z,63.55
2023-01-09T15:25:52.036Z,72.80
2023-01-09T15:28:32.280Z,73.70
2023-01-09T15:31:04.218Z,69.90
2023-01-09T15:33:32.470Z,67.55
2023-01-09T15:36:02.695Z,65.03
2023-01-09T15:38:32.189Z,66.65
2023-01-09T15:41:01.283Z,66.10
2023-01-09T15:43:44.235Z,65.05
2023-01-09T15:46:12.520Z,75.65
2023-01-09T15:48:40.601Z,80.03
2023-01-09T15:51:10.495Z,90.88
2023-01-09T15:53:38.610Z,103.97
2023-01-09T15:56:09.033Z,102.40
2023-01-09T15:58:37.763Z,97.57
2023-01-09T16:01:08.371Z,94.97
2023-01-09T16:03:37.604Z,92.32
2023-01-09T16:06:08.757Z,88.97
2023-01-09T16:08:38.163Z,87.60
2023-01-09T16:11:07.543Z,87.97
2023-01-09T16:13:40.520Z,83.18
2023-01-09T16:16:10.280Z,84.10
2023-01-09T16:18:38.766Z,79.95
2023-01-09T16:21:31.362Z,79.75
2023-01-09T16:24:00.827Z,80.60
2023-01-09T16:26:29.307Z,77.10
2023-01-09T16:28:57.568Z,77.53
2023-01-09T16:31:29.158Z,74.85
2023-01-09T16:33:59.875Z,70.70
2023-01-09T16:36:28.773Z,72.55
2023-01-09T16:38:57.190Z,68.57
2023-01-09T16:41:42.779Z,70.80
2023-01-09T16:44:11.031Z,64.68
2023-01-09T16:46:43.339Z,63.55
2023-01-09T16:49:22.077Z,63.15
2023-01-09T16:51:50.347Z,61.63
2023-01-09T16:54:18.481Z,94.00
2023-01-09T16:56:48.490Z,94.60
2023-01-09T16:59:17.129Z,98.10
2023-01-09T17:01:46.579Z,110.82
2023-01-09T17:04:15.379Z,111.10
2023-01-09T17:06:43.780Z,122.13
2023-01-09T17:09:12.864Z,117.10
2023-01-09T17:11:41.148Z,121.25
2023-01-09T17:14:09.335Z,121.15
2023-01-09T17:16:37.525Z,116.15
2023-01-09T17:19:07.167Z,117.65
2023-01-09T17:21:35.268Z,117.65
2023-01-09T17:24:20.882Z,112.78
2023-01-09T17:27:07.932Z,110.15
2023-01-09T17:29:36.166Z,107.97
2023-01-09T17:32:04.373Z,107.45
2023-01-09T17:34:34.390Z,106.97
2023-01-09T17:37:04.364Z,104.30
2023-01-09T17:39:32.849Z,103.15
2023-01-09T17:42:02.001Z,90.18
2023-01-09T17:44:30.175Z,88.10
2023-01-09T17:46:58.309Z,93.13
2023-01-09T17:49:27.310Z,92.38
2023-01-09T17:51:56.803Z,95.60
2023-01-09T17:54:24.934Z,97.22
2023-01-09T17:56:54.194Z,89.30
2023-01-09T17:59:22.363Z,92.90
2023-01-09T18:01:50.465Z,91.35
2023-01-09T18:04:18.602Z,88.20
2023-01-09T18:06:48.292Z,89.45
2023-01-09T18:09:18.256Z,91.38
2023-01-09T18:11:47.685Z,86.80
2023-01-09T18:14:17.593Z,90.82
2023-01-09T18:16:45.807Z,94.25
2023-01-09T18:19:13.931Z,94.40
2023-01-09T18:21:42.100Z,101.35
2023-01-09T18:24:10.387Z,96.40
2023-01-09T18:26:39.975Z,98.90
2023-01-09T18:29:09.407Z,98.10
2023-01-09T18:31:37.645Z,97.65
2023-01-09T18:34:07.501Z,97.72
2023-01-09T18:36:35.714Z,93.85
2023-01-09T18:39:04.971Z,93.03
2023-01-09T18:41:33.197Z,95.93
2023-01-09T18:44:03.054Z,97.03
2023-01-09T18:46:32.407Z,94.10
2023-01-09T18:49:01.344Z,90.55
2023-01-09T18:51:29.708Z,94.82
2023-01-09T18:53:58.721Z,91.07
2023-01-09T18:56:27.269Z,91.43
2023-01-09T18:58:55.557Z,93.25
2023-01-09T19:01:25.167Z,89.88
2023-01-09T19:03:53.460Z,84.97
2023-01-09T19:06:21.648Z,85.53
2023-01-09T19:08:50.041Z,87.65
2023-01-09T19:11:18.143Z,84.80
2023-01-09T19:13:46.291Z,83.18
2023-01-09T19:16:14.732Z,83.22
2023-01-09T19:18:44.646Z,79.85
2023-01-09T19:21:14.109Z,79.05
2023-01-09T19:23:42.771Z,76.53
2023-01-09T19:26:16.665Z,77.50
2023-01-09T19:28:46.731Z,81.05
2023-01-09T19:31:15.165Z,75.70
2023-01-09T19:33:44.661Z,75.03
2023-01-09T19:36:12.931Z,74.10
2023-01-09T19:38:41.192Z,72.93
2023-01-09T19:41:13.152Z,73.80
2023-01-09T19:43:41.421Z,69.68
2023-01-09T19:46:09.984Z,73.15
2023-01-09T19:48:38.208Z,68.93
2023-01-09T19:51:08.949Z,70.82
2023-01-09T19:53:37.279Z,68.30
2023-01-09T19:56:12.369Z,67.75
2023-01-09T19:58:40.636Z,67.35
2023-01-09T20:01:10.370Z,66.68
2023-01-09T20:03:38.712Z,64.03
2023-01-09T20:06:10.061Z,64.80
2023-01-09T20:08:38.226Z,63.35
2023-01-09T20:11:06.715Z,62.92
2023-01-09T20:13:35.002Z,60.47
2023-01-09T20:16:03.669Z,61.53
2023-01-09T20:18:31.970Z,59.78
2023-01-09T20:21:00.139Z,60.22
2023-01-09T20:23:32.391Z,57.55
2023-01-09T20:26:00.894Z,59.20
2023-01-09T20:28:29.143Z,57.40
2023-01-09T20:30:57.309Z,55.85
2023-01-09T20:33:25.598Z,57.67
2023-01-09T20:35:53.819Z,55.90
2023-01-09T20:38:23.527Z,54.97
2023-01-09T20:40:57.309Z,53.58
2023-01-09T20:43:26.522Z,54.13
2023-01-09T20:45:54.819Z,52.97
2023-01-09T20:48:23.000Z,53.42
2023-01-09T20:50:51.148Z,52.38
2023-01-09T20:53:19.445Z,52.28
2023-01-09T20:55:47.582Z,50.90
2023-01-09T20:58:17.328Z,50.55
2023-01-09T21:00:45.473Z,49.25
2023-01-09T21:03:16.741Z,48.95
2023-01-09T21:05:44.887Z,48.25
2023-01-09T21:08:13.009Z,49.17
2023-01-09T21:10:41.191Z,48.03
2023-01-09T21:13:09.281Z,49.17
2023-01-09T21:15:39.979Z,47.17
2023-01-09T21:18:08.102Z,47.10
2023-01-09T21:20:36.202Z,47.45
2023-01-09T21:23:04.368Z,46.90
2023-01-09T21:25:32.436Z,46.25
2023-01-09T21:28:00.644Z,44.97
2023-01-09T21:30:28.723Z,44.45
2023-01-09T21:32:58.280Z,42.67
2023-01-09T21:35:26.471Z,44.25
2023-01-09T21:37:54.645Z,44.72
2023-01-09T21:40:23.100Z,43.42
2023-01-09T21:43:08.605Z,45.17
2023-01-09T21:45:56.062Z,42.45
2023-01-09T21:48:25.728Z,43.05
2023-01-09T21:50:53.935Z,42.55
2023-01-09T21:53:22.023Z,41.67
2023-01-09T21:55:50.143Z,40.40
2023-01-09T21:58:18.240Z,42.50
2023-01-09T22:00:46.379Z,41.17
2023-01-09T22:03:17.340Z,39.85
2023-01-09T22:05:46.894Z,41.97
2023-01-09T22:08:15.004Z,39.97
2023-01-09T22:10:43.053Z,39.97
2023-01-09T22:13:17.918Z,38.70
2023-01-09T22:15:47.517Z,38.67
2023-01-09T22:18:15.658Z,37.10
2023-01-09T22:20:43.780Z,37.13
2023-01-09T22:23:13.259Z,38.10
2023-01-09T22:25:42.061Z,36.55
2023-01-09T22:28:11.204Z,38.38
2023-01-09T22:30:40.789Z,37.85
2023-01-09T22:33:10.795Z,36.00
2023-01-09T22:35:38.916Z,36.20
2023-01-09T22:38:07.000Z,36.22
2023-01-09T22:40:37.539Z,36.83
2023-01-09T22:43:06.058Z,36.25
2023-01-09T22:45:34.813Z,33.72
2023-01-09T22:48:02.942Z,34.42
2023-01-09T22:50:31.094Z,34.83
2023-01-09T22:52:59.204Z,33.05
2023-01-09T22:55:27.407Z,32.72
2023-01-09T22:57:56.967Z,31.77
2023-01-09T23:00:25.284Z,31.90
2023-01-09T23:02:53.515Z,32.55
2023-01-09T23:05:21.791Z,32.00
2023-01-09T23:07:49.856Z,32.10
2023-01-09T23:10:18.123Z,32.30
2023-01-09T23:12:48.542Z,30.88
2023-01-09T23:15:18.306Z,31.10
2023-01-09T23:17:46.533Z,30.27
2023-01-09T23:20:14.671Z,30.90
2023-01-09T23:22:42.876Z,28.80
2023-01-09T23:25:14.356Z,29.25
2023-01-09T23:27:42.651Z,30.33
2023-01-09T23:30:12.665Z,29.67
2023-01-09T23:32:42.169Z,27.67
2023-01-09T23:35:10.658Z,29.00
2023-01-09T23:37:38.801Z,28.08
2023-01-09T23:40:07.709Z,27.08
2023-01-09T23:42:53.312Z,27.02
2023-01-09T23:45:22.938Z,28.00
2023-01-09T23:47:52.608Z,26.77
2023-01-09T23:50:21.060Z,26.77
2023-01-09T23:52:49.114Z,27.30
2023-01-09T23:55:17.437Z,26.27
2023-01-09T23:57:45.492Z,26.10
